createdAt,value
2018-12-09T00:00:24.952Z,94406
2018-12-09T00:01:27.117Z,94402.8
2018-12-09T00:02:29.264Z,94418.7
2018-12-09T00:03:31.686Z,94405.4
2018-12-09T00:04:33.842Z,94404.1
2018-12-09T00:05:36.322Z,94407.3
2018-12-09T00:06:38.748Z,94408.2
2018-12-09T00:07:41.171Z,94408.3
2018-12-09T00:08:43.396Z,94395.2
2018-12-09T00:09:45.526Z,94400.9
2018-12-09T00:10:47.957Z,94392.9
2018-12-09T00:11:50.108Z,94378
2018-12-09T00:12:52.262Z,94367.2
2018-12-09T00:13:54.688Z,94355.2
2018-12-09T00:14:57.120Z,94375.5
2018-12-09T00:15:59.268Z,94379.7
2018-12-09T00:17:01.680Z,94372.9
2018-12-09T00:18:04.111Z,94361.5
2018-12-09T00:19:06.538Z,94373.9
2018-12-09T00:20:08.424Z,94373.6
2018-12-09T00:21:10.302Z,94345.7
2018-12-09T00:22:12.712Z,94354.4
2018-12-09T00:23:15.140Z,94349.3
2018-12-09T00:24:17.294Z,94337.8
2018-12-09T00:25:19.184Z,94337.2
2018-12-09T00:26:21.620Z,94338
2018-12-09T00:27:24.114Z,94329.9
2018-12-09T00:28:26.551Z,94321.1
2018-12-09T00:29:28.973Z,94322.1
2018-12-09T00:30:31.398Z,94317.1
2018-12-09T00:31:33.830Z,94321.8
2018-12-09T00:32:36.265Z,94328
2018-12-09T00:33:38.688Z,94313.7
2018-12-09T00:34:40.846Z,94326.4
2018-12-09T00:35:43.278Z,94325.5
2018-12-09T00:36:45.398Z,94310.2
2018-12-09T00:37:47.274Z,94320.9
2018-12-09T00:38:49.705Z,94326
2018-12-09T00:39:51.848Z,94312.9
2018-12-09T00:40:54.272Z,94306.4
2018-12-09T00:41:56.691Z,94311.9
2018-12-09T00:42:58.840Z,94304.7
2018-12-09T00:44:01.264Z,94290.4
2018-12-09T00:45:03.688Z,94286.8
2018-12-09T00:46:06.116Z,94279.7
2018-12-09T00:47:08.526Z,94272
2018-12-09T00:48:10.672Z,94252.1
2018-12-09T00:49:12.546Z,94264.4
2018-12-09T00:50:14.700Z,94254.1
2018-12-09T00:51:17.133Z,94263.8
2018-12-09T00:52:19.564Z,94270.9
2018-12-09T00:53:22.004Z,94269.7
2018-12-09T00:54:24.430Z,94277.1
2018-12-09T00:55:26.589Z,94272.7
2018-12-09T00:56:28.736Z,94270.4
2018-12-09T00:57:31.158Z,94275.5
2018-12-09T00:58:33.586Z,94256.9
2018-12-09T00:59:35.710Z,94266.8
2018-12-09T01:00:38.144Z,94267
2018-12-09T01:01:40.567Z,94266.8
2018-12-09T01:02:44.199Z,94270.8
2018-12-09T01:03:46.345Z,94263.6
2018-12-09T01:04:48.492Z,94261.6
2018-12-09T01:05:50.659Z,94260.3
2018-12-09T01:06:53.078Z,94268.6
2018-12-09T01:07:55.514Z,94271.2
2018-12-09T01:08:57.941Z,94260.7
2018-12-09T01:10:00.425Z,94257.6
2018-12-09T01:11:02.850Z,94256.1
2018-12-09T01:12:05.016Z,94258.7
2018-12-09T01:13:07.447Z,94248.6
2018-12-09T01:14:09.872Z,94243.3
2018-12-09T01:15:12.029Z,94221.9
2018-12-09T01:16:14.187Z,94230.2
2018-12-09T01:17:16.051Z,94213
2018-12-09T01:18:18.212Z,94241
2018-12-09T01:19:20.642Z,94240.2
2018-12-09T01:20:22.821Z,94249.5
2018-12-09T01:21:25.248Z,94232.5
2018-12-09T01:22:27.679Z,94232.3
2018-12-09T01:23:30.112Z,94238.1
2018-12-09T01:24:32.270Z,94230.7
2018-12-09T01:25:34.702Z,94237.5
2018-12-09T01:26:37.166Z,94232.6
2018-12-09T01:27:39.327Z,94227.1
2018-12-09T01:28:41.750Z,94235.1
2018-12-09T01:29:43.893Z,94226.6
2018-12-09T01:30:46.328Z,94225.8
2018-12-09T01:31:49.204Z,94219.1
2018-12-09T01:32:51.768Z,94218
2018-12-09T01:33:54.712Z,94221.6
2018-12-09T01:34:56.872Z,94223.3
2018-12-09T01:35:59.299Z,94227.4
2018-12-09T01:37:01.740Z,94231.4
2018-12-09T01:38:04.156Z,94219.1
2018-12-09T01:39:06.322Z,94225.2
2018-12-09T01:40:08.751Z,94224.6
2018-12-09T01:41:11.188Z,94236.5
2018-12-09T01:42:13.350Z,94228
2018-12-09T01:43:15.780Z,94223.5
2018-12-09T01:44:18.202Z,94216.8
2018-12-09T01:45:20.632Z,94210.5
2018-12-09T01:46:22.783Z,94211.3
2018-12-09T01:47:25.552Z,94208.1
2018-12-09T01:48:28.252Z,94223.6
2018-12-09T01:49:30.893Z,94222.3
2018-12-09T01:50:33.323Z,94234.2
2018-12-09T01:51:35.751Z,94224.3
2018-12-09T01:52:37.891Z,94224.1
2018-12-09T01:53:39.750Z,94215.9
2018-12-09T01:54:42.249Z,94215.5
2018-12-09T01:55:44.417Z,94229.7
2018-12-09T01:56:46.843Z,94223.5
2018-12-09T01:57:49.282Z,94211.5
2018-12-09T01:58:51.723Z,94217.9
2018-12-09T01:59:53.866Z,94207.7
2018-12-09T02:00:56.290Z,94216.3
2018-12-09T02:01:58.709Z,94205.6
2018-12-09T02:03:01.312Z,94208.7
2018-12-09T02:04:04.739Z,94214.2
2018-12-09T02:05:07.500Z,94205.2
2018-12-09T02:06:09.628Z,94199.1
2018-12-09T02:07:11.794Z,94200.4
2018-12-09T02:08:14.229Z,94196.5
2018-12-09T02:09:16.666Z,94198.3
2018-12-09T02:10:19.103Z,94194.4
2018-12-09T02:11:21.535Z,94210.2
2018-12-09T02:12:23.963Z,94218.6
2018-12-09T02:13:26.419Z,94207.2
2018-12-09T02:14:28.853Z,94208.9
2018-12-09T02:15:31.292Z,94208.5
2018-12-09T02:16:33.764Z,94203.7
2018-12-09T02:17:36.197Z,94205.5
2018-12-09T02:18:38.633Z,94207.1
2018-12-09T02:19:41.481Z,94200.1
2018-12-09T02:20:44.619Z,94184.2
2018-12-09T02:21:47.295Z,94194
2018-12-09T02:22:49.559Z,94200.9
2018-12-09T02:23:51.979Z,94189.6
2018-12-09T02:24:53.851Z,94205.7
2018-12-09T02:25:56.272Z,94205.3
2018-12-09T02:26:58.442Z,94204.6
2018-12-09T02:28:00.954Z,94206.9
2018-12-09T02:29:03.392Z,94208.2
2018-12-09T02:30:05.538Z,94202.8
2018-12-09T02:31:07.954Z,94201.3
2018-12-09T02:32:10.106Z,94196.1
2018-12-09T02:33:12.262Z,94203.9
2018-12-09T02:34:14.132Z,94199.3
2018-12-09T02:35:16.886Z,94185.4
2018-12-09T02:36:19.845Z,94199.8
2018-12-09T02:37:22.842Z,94195.7
2018-12-09T02:38:24.995Z,94201.5
2018-12-09T02:39:26.865Z,94191.6
2018-12-09T02:40:29.011Z,94186.3
2018-12-09T02:41:31.431Z,94195.6
2018-12-09T02:42:33.295Z,94196.1
2018-12-09T02:43:35.754Z,94178.9
2018-12-09T02:44:38.187Z,94193.8
2018-12-09T02:45:40.603Z,94191.1
2018-12-09T02:46:42.760Z,94192.2
2018-12-09T02:47:44.659Z,94189.4
2018-12-09T02:48:47.081Z,94185.5
2018-12-09T02:49:49.330Z,94183.7
2018-12-09T02:50:52.190Z,94185.8
2018-12-09T02:51:55.459Z,94197.2
2018-12-09T02:52:58.179Z,94183.6
2018-12-09T02:54:00.047Z,94179.4
2018-12-09T02:55:03.052Z,94174.4
2018-12-09T02:56:05.183Z,94175.4
2018-12-09T02:57:07.614Z,94179.3
2018-12-09T02:58:09.496Z,94186.3
2018-12-09T02:59:11.653Z,94182.2
2018-12-09T03:00:13.806Z,94147
2018-12-09T03:01:16.224Z,94148.9
2018-12-09T03:02:18.381Z,94164
2018-12-09T03:03:20.936Z,94153.3
2018-12-09T03:04:23.358Z,94150.9
2018-12-09T03:05:25.791Z,94153.2
2018-12-09T03:06:28.337Z,94153.7
2018-12-09T03:07:31.701Z,94150.6
2018-12-09T03:08:34.223Z,94146.7
2018-12-09T03:09:36.365Z,94142.6
2018-12-09T03:10:38.793Z,94142.8
2018-12-09T03:11:40.947Z,94136.4
2018-12-09T03:12:42.825Z,94134.9
2018-12-09T03:13:45.253Z,94125.4
2018-12-09T03:14:47.138Z,94124.9
2018-12-09T03:15:49.578Z,94123.6
2018-12-09T03:16:51.994Z,94123.8
2018-12-09T03:17:54.427Z,94118.9
2018-12-09T03:18:56.849Z,94120.8
2018-12-09T03:19:59.281Z,94114.4
2018-12-09T03:21:01.714Z,94113.2
2018-12-09T03:22:04.613Z,94104.9
2018-12-09T03:23:07.516Z,94115.7
2018-12-09T03:24:10.151Z,94097.1
2018-12-09T03:25:12.584Z,94102
2018-12-09T03:26:14.743Z,94098.1
2018-12-09T03:27:16.893Z,94093.3
2018-12-09T03:28:19.359Z,94093.9
2018-12-09T03:29:21.798Z,94087.1
2018-12-09T03:30:24.243Z,94081.7
2018-12-09T03:31:26.140Z,94087.6
2018-12-09T03:32:27.743Z,94088.4
2018-12-09T03:33:29.401Z,94082.9
2018-12-09T03:34:31.835Z,94081.2
2018-12-09T03:35:34.337Z,94079.9
2018-12-09T03:36:36.801Z,94080.8
2018-12-09T03:37:39.723Z,94074.6
2018-12-09T03:38:42.338Z,94070.7
2018-12-09T03:39:44.500Z,94067.7
2018-12-09T03:40:46.921Z,94071.5
2018-12-09T03:41:48.810Z,94063.5
2018-12-09T03:42:51.234Z,94057.4
2018-12-09T03:43:53.668Z,94054.6
2018-12-09T03:44:55.827Z,94051.8
2018-12-09T03:45:57.453Z,94046.6
2018-12-09T03:46:59.609Z,94045.3
2018-12-09T03:48:02.030Z,94046.8
2018-12-09T03:49:04.451Z,94033.8
2018-12-09T03:50:06.605Z,94034
2018-12-09T03:51:08.762Z,94029.4
2018-12-09T03:52:11.704Z,94027
2018-12-09T03:53:14.606Z,94025.2
2018-12-09T03:54:17.033Z,94025.2
2018-12-09T03:55:18.919Z,94028
2018-12-09T03:56:21.335Z,94022.6
2018-12-09T03:57:23.487Z,94019.4
2018-12-09T03:58:25.617Z,94013.1
2018-12-09T03:59:27.769Z,94018.1
2018-12-09T04:00:30.199Z,94017.4
2018-12-09T04:01:32.097Z,94013.9
2018-12-09T04:02:34.528Z,94008
2018-12-09T04:03:36.953Z,93999.1
2018-12-09T04:04:39.460Z,94011.6
2018-12-09T04:05:41.881Z,94003.2
2018-12-09T04:06:44.876Z,93989.3
2018-12-09T04:07:47.664Z,94000.5
2018-12-09T04:08:50.075Z,93998.8
2018-12-09T04:09:51.969Z,94016.3
2018-12-09T04:10:54.097Z,94004.4
2018-12-09T04:11:56.525Z,94010
2018-12-09T04:12:58.411Z,94023.3
2018-12-09T04:14:00.856Z,94017.4
2018-12-09T04:15:03.031Z,94008
2018-12-09T04:16:05.175Z,94013.4
2018-12-09T04:17:07.053Z,94016.6
2018-12-09T04:18:09.507Z,94018.2
2018-12-09T04:19:11.919Z,94007.5
2018-12-09T04:20:14.341Z,94030.5
2018-12-09T04:21:17.399Z,94023.4
2018-12-09T04:22:20.306Z,94028
2018-12-09T04:23:22.742Z,94035
2018-12-09T04:24:24.884Z,94034.3
2018-12-09T04:25:27.022Z,94035.2
2018-12-09T04:26:29.450Z,94032
2018-12-09T04:27:31.605Z,94038.7
2018-12-09T04:28:33.468Z,94037.2
2018-12-09T04:29:35.633Z,94026.6
2018-12-09T04:30:38.141Z,94035.9
2018-12-09T04:31:40.571Z,94050.4
2018-12-09T04:32:42.775Z,94053.4
2018-12-09T04:33:44.634Z,94047.8
2018-12-09T04:34:46.787Z,94062.9
2018-12-09T04:35:50.045Z,94060.4
2018-12-09T04:36:52.829Z,94067.6
2018-12-09T04:37:55.514Z,94063.1
2018-12-09T04:38:57.669Z,94066.5
2018-12-09T04:40:00.182Z,94069.5
2018-12-09T04:41:02.337Z,94079.4
2018-12-09T04:42:04.487Z,94067.7
2018-12-09T04:43:06.656Z,94087.9
2018-12-09T04:44:09.086Z,94098.2
2018-12-09T04:45:11.606Z,94104.5
2018-12-09T04:46:14.028Z,94092.7
2018-12-09T04:47:16.451Z,94106.8
2018-12-09T04:48:18.890Z,94090.5
2018-12-09T04:49:21.319Z,94097.2
2018-12-09T04:50:24.123Z,94097.8
2018-12-09T04:51:27.033Z,94111.1
2018-12-09T04:52:29.587Z,94115
2018-12-09T04:53:32.006Z,94097.8
2018-12-09T04:54:34.430Z,94112.1
2018-12-09T04:55:36.859Z,94098
2018-12-09T04:56:39.011Z,94095.6
2018-12-09T04:57:41.158Z,94122.7
2018-12-09T04:58:43.580Z,94126.8
2018-12-09T04:59:46.069Z,94123
2018-12-09T05:00:48.217Z,94133.4
2018-12-09T05:01:50.710Z,94130
2018-12-09T05:02:53.126Z,94127.7
2018-12-09T05:03:55.295Z,94141.3
2018-12-09T05:04:57.724Z,94144.4
2018-12-09T05:06:00.724Z,94150.8
2018-12-09T05:07:03.671Z,94151.7
2018-12-09T05:08:06.148Z,94155.6
2018-12-09T05:09:08.563Z,94148.6
2018-12-09T05:10:10.712Z,94157.6
2018-12-09T05:11:13.142Z,94146.6
2018-12-09T05:12:15.562Z,94143.8
2018-12-09T05:13:17.990Z,94148.5
2018-12-09T05:14:20.427Z,94141.3
2018-12-09T05:15:22.854Z,94139.4
2018-12-09T05:16:24.995Z,94142.7
2018-12-09T05:17:27.437Z,94145.6
2018-12-09T05:18:29.860Z,94146.5
2018-12-09T05:19:32.028Z,94168
2018-12-09T05:20:35.118Z,94185.3
2018-12-09T05:21:37.808Z,94182.1
2018-12-09T05:22:40.522Z,94182.1
2018-12-09T05:23:42.952Z,94177.1
2018-12-09T05:24:45.102Z,94181.8
2018-12-09T05:25:47.526Z,94173.4
2018-12-09T05:26:49.953Z,94177.1
2018-12-09T05:27:52.095Z,94173
2018-12-09T05:28:54.242Z,94169.5
2018-12-09T05:29:56.674Z,94167
2018-12-09T05:30:59.092Z,94171.3
2018-12-09T05:32:01.253Z,94173.2
2018-12-09T05:33:03.690Z,94176.6
2018-12-09T05:34:06.112Z,94183.9
2018-12-09T05:35:09.224Z,94194.8
2018-12-09T05:36:12.152Z,94196.4
2018-12-09T05:37:14.642Z,94192.9
2018-12-09T05:38:16.896Z,94180.8
2018-12-09T05:39:19.042Z,94181.5
2018-12-09T05:40:21.458Z,94190.9
2018-12-09T05:41:23.330Z,94192.5
2018-12-09T05:42:25.752Z,94193.2
2018-12-09T05:43:28.192Z,94194.6
2018-12-09T05:44:30.621Z,94190.1
2018-12-09T05:45:33.035Z,94185.2
2018-12-09T05:46:35.196Z,94177.7
2018-12-09T05:47:37.072Z,94182.4
2018-12-09T05:48:39.500Z,94179.5
2018-12-09T05:49:42.816Z,94175.6
2018-12-09T05:50:45.498Z,94184.8
2018-12-09T05:51:48.443Z,94177.6
2018-12-09T05:52:50.586Z,94175.7
2018-12-09T05:53:53.006Z,94175.9
2018-12-09T05:54:55.431Z,94178.6
2018-12-09T05:55:57.871Z,94178.6
2018-12-09T05:57:00.298Z,94184.1
2018-12-09T05:58:02.724Z,94195.6
2018-12-09T05:59:05.143Z,94205.5
2018-12-09T06:00:07.292Z,94215.6
2018-12-09T06:01:09.723Z,94230.8
2018-12-09T06:02:12.142Z,94239.9
2018-12-09T06:03:14.293Z,94235.1
2018-12-09T06:04:17.422Z,94250
2018-12-09T06:05:20.259Z,94250.8
2018-12-09T06:06:23.402Z,94253.2
2018-12-09T06:07:25.828Z,94259.1
2018-12-09T06:08:28.258Z,94268.9
2018-12-09T06:09:30.142Z,94265
2018-12-09T06:10:32.285Z,94268.4
2018-12-09T06:11:34.432Z,94270.8
2018-12-09T06:12:36.588Z,94264.6
2018-12-09T06:13:38.748Z,94272.8
2018-12-09T06:14:41.260Z,94267.2
2018-12-09T06:15:43.430Z,94273
2018-12-09T06:16:45.299Z,94258.1
2018-12-09T06:17:47.450Z,94263.8
2018-12-09T06:18:50.406Z,94256.8
2018-12-09T06:19:53.356Z,94255.4
2018-12-09T06:20:55.514Z,94265.3
2018-12-09T06:21:57.930Z,94270.5
2018-12-09T06:23:00.352Z,94283.5
2018-12-09T06:24:02.222Z,94276.8
2018-12-09T06:25:04.649Z,94278.1
2018-12-09T06:26:06.800Z,94288.8
2018-12-09T06:27:09.228Z,94301.3
2018-12-09T06:28:11.376Z,94308.1
2018-12-09T06:29:13.538Z,94310
2018-12-09T06:30:15.699Z,94311.9
2018-12-09T06:31:18.127Z,94320.9
2018-12-09T06:32:20.667Z,94319.9
2018-12-09T06:33:23.891Z,94319.3
2018-12-09T06:34:26.852Z,94311.4
2018-12-09T06:35:29.278Z,94315
2018-12-09T06:36:31.448Z,94300.6
2018-12-09T06:37:33.589Z,94301.2
2018-12-09T06:38:35.473Z,94305.6
2018-12-09T06:39:37.897Z,94303.6
2018-12-09T06:40:40.050Z,94299.4
2018-12-09T06:41:42.470Z,94306.8
2018-12-09T06:42:44.888Z,94310.5
2018-12-09T06:43:47.310Z,94308
2018-12-09T06:44:49.742Z,94308.3
2018-12-09T06:45:52.160Z,94303.6
2018-12-09T06:46:54.906Z,94299.2
2018-12-09T06:47:58.248Z,94286.4
2018-12-09T06:49:01.232Z,94284.7
2018-12-09T06:50:03.656Z,94272.9
2018-12-09T06:51:06.072Z,94275.7
2018-12-09T06:52:08.502Z,94269.2
2018-12-09T06:53:10.928Z,94267.1
2018-12-09T06:54:13.353Z,94263.6
2018-12-09T06:55:15.793Z,94269.3
2018-12-09T06:56:18.219Z,94268.9
2018-12-09T06:57:20.362Z,94264.1
2018-12-09T06:58:22.802Z,94270.2
2018-12-09T06:59:25.236Z,94268.8
2018-12-09T07:00:27.389Z,94271.8
2018-12-09T07:01:32.235Z,94278.2
2018-12-09T07:02:34.908Z,94277.3
2018-12-09T07:03:37.621Z,94279.6
2018-12-09T07:04:40.123Z,94277.9
2018-12-09T07:05:42.353Z,94279.9
2018-12-09T07:06:44.771Z,94280.6
2018-12-09T07:07:47.199Z,94289.6
2018-12-09T07:08:49.635Z,94280.5
2018-12-09T07:09:52.176Z,94280.5
2018-12-09T07:10:54.623Z,94274
2018-12-09T07:11:56.769Z,94274.5
2018-12-09T07:12:59.193Z,94283.9
2018-12-09T07:14:01.089Z,94282.6
2018-12-09T07:15:03.881Z,94289.2
2018-12-09T07:16:06.656Z,94285.8
2018-12-09T07:17:09.267Z,94290.2
2018-12-09T07:18:11.424Z,94291.7
2018-12-09T07:19:13.291Z,94289.7
2018-12-09T07:20:15.723Z,94290.2
2018-12-09T07:21:17.597Z,94292.5
2018-12-09T07:22:20.023Z,94285
2018-12-09T07:23:22.463Z,94278.4
2018-12-09T07:24:24.628Z,94279.4
2018-12-09T07:25:27.041Z,94270.6
2018-12-09T07:26:29.532Z,94277
2018-12-09T07:27:31.680Z,94277.4
2018-12-09T07:28:33.837Z,94273.7
2018-12-09T07:29:36.518Z,94277.6
2018-12-09T07:30:39.511Z,94281.1
2018-12-09T07:31:41.934Z,94276.9
2018-12-09T07:32:44.080Z,94280.5
2018-12-09T07:33:46.516Z,94283.6
2018-12-09T07:34:48.953Z,94283.7
2018-12-09T07:35:51.372Z,94293.2
2018-12-09T07:36:53.514Z,94298.7
2018-12-09T07:37:55.952Z,94306
2018-12-09T07:38:58.111Z,94306.9
2018-12-09T07:40:00.529Z,94318.2
2018-12-09T07:41:02.675Z,94306.5
2018-12-09T07:42:04.834Z,94303.6
2018-12-09T07:43:07.633Z,94314.8
2018-12-09T07:44:10.494Z,94309
2018-12-09T07:45:13.528Z,94313.6
2018-12-09T07:46:16.740Z,94310.4
2018-12-09T07:47:18.913Z,94313.5
2018-12-09T07:48:21.073Z,94311.1
2018-12-09T07:49:23.493Z,94309.7
2018-12-09T07:50:25.927Z,94305.5
2018-12-09T07:51:28.084Z,94301.9
2018-12-09T07:52:29.997Z,94302.9
2018-12-09T07:53:32.163Z,94308.8
2018-12-09T07:54:34.596Z,94312
2018-12-09T07:55:37.023Z,94307
2018-12-09T07:56:39.519Z,94305.9
2018-12-09T07:57:41.423Z,94304.4
2018-12-09T07:58:43.851Z,94297.8
2018-12-09T07:59:46.280Z,94302.7
2018-12-09T08:00:48.453Z,94306.4
2018-12-09T08:01:50.881Z,94305.1
2018-12-09T08:02:53.312Z,94301
2018-12-09T08:03:55.765Z,94299.8
2018-12-09T08:04:58.196Z,94299
2018-12-09T08:06:00.339Z,94302.8
2018-12-09T08:07:02.202Z,94308.7
2018-12-09T08:08:04.069Z,94306.2
2018-12-09T08:09:06.503Z,94310.7
2018-12-09T08:10:08.657Z,94313.2
2018-12-09T08:11:10.816Z,94311.3
2018-12-09T08:12:12.962Z,94313
2018-12-09T08:13:15.092Z,94319.8
2018-12-09T08:14:17.525Z,94315.8
2018-12-09T08:15:19.956Z,94322
2018-12-09T08:16:22.106Z,94311.9
2018-12-09T08:17:24.522Z,94325.4
2018-12-09T08:18:26.953Z,94318.5
2018-12-09T08:19:29.110Z,94322.5
2018-12-09T08:20:31.262Z,94333.8
2018-12-09T08:21:33.682Z,94339.2
2018-12-09T08:22:35.865Z,94340.9
2018-12-09T08:23:38.289Z,94349.8
2018-12-09T08:24:40.516Z,94347
2018-12-09T08:25:42.994Z,94347
2018-12-09T08:26:45.152Z,94347.8
2018-12-09T08:27:47.328Z,94357.7
2018-12-09T08:28:49.759Z,94356.1
2018-12-09T08:29:53.418Z,94357.5
2018-12-09T08:30:55.842Z,94347.5
2018-12-09T08:31:58.266Z,94348.8
2018-12-09T08:33:00.689Z,94351.8
2018-12-09T08:34:02.583Z,94351.8
2018-12-09T08:35:05.002Z,94348.6
2018-12-09T08:36:07.138Z,94354.6
2018-12-09T08:37:09.571Z,94350.3
2018-12-09T08:38:11.735Z,94344.2
2018-12-09T08:39:13.898Z,94364.3
2018-12-09T08:40:16.363Z,94359.6
2018-12-09T08:41:18.826Z,94358.1
2018-12-09T08:42:21.329Z,94368.2
2018-12-09T08:43:23.760Z,94361.7
2018-12-09T08:44:26.184Z,94357.1
2018-12-09T08:45:28.349Z,94367.4
2018-12-09T08:46:30.777Z,94360.8
2018-12-09T08:47:33.201Z,94353.4
2018-12-09T08:48:35.639Z,94354.4
2018-12-09T08:49:37.490Z,94362.9
2018-12-09T08:50:39.910Z,94359.2
2018-12-09T08:51:42.073Z,94361.4
2018-12-09T08:52:44.507Z,94370.7
2018-12-09T08:53:46.649Z,94367.9
2018-12-09T08:54:49.123Z,94360.8
2018-12-09T08:55:51.543Z,94363.5
2018-12-09T08:56:53.973Z,94365.1
2018-12-09T08:57:56.414Z,94359.3
2018-12-09T08:58:58.836Z,94377
2018-12-09T09:00:00.972Z,94370.9
2018-12-09T09:01:03.405Z,94375.9
2018-12-09T09:02:05.836Z,94371
2018-12-09T09:03:08.260Z,94383.9
2018-12-09T09:04:10.698Z,94365.9
2018-12-09T09:05:13.163Z,94393.4
2018-12-09T09:06:15.594Z,94394.9
2018-12-09T09:07:18.047Z,94395.5
2018-12-09T09:08:20.477Z,94395.5
2018-12-09T09:09:22.915Z,94401.4
2018-12-09T09:10:25.354Z,94398.1
2018-12-09T09:11:27.484Z,94403.3
2018-12-09T09:12:29.914Z,94406
2018-12-09T09:13:32.065Z,94399.3
2018-12-09T09:14:34.504Z,94413
2018-12-09T09:15:36.660Z,94422.6
2018-12-09T09:16:38.810Z,94416.1
2018-12-09T09:17:40.706Z,94418.4
2018-12-09T09:18:43.332Z,94421.5
2018-12-09T09:19:45.771Z,94423.6
2018-12-09T09:20:48.202Z,94423.9
2018-12-09T09:21:50.635Z,94430.1
2018-12-09T09:22:53.068Z,94432.1
2018-12-09T09:23:55.494Z,94437.8
2018-12-09T09:24:57.930Z,94441.9
2018-12-09T09:26:00.366Z,94441
2018-12-09T09:27:02.789Z,94441.1
2018-12-09T09:28:05.211Z,94442.1
2018-12-09T09:29:07.655Z,94450
2018-12-09T09:30:09.803Z,94452.4
2018-12-09T09:31:12.242Z,94436.1
2018-12-09T09:32:14.685Z,94451.7
2018-12-09T09:33:16.925Z,94452
2018-12-09T09:34:19.085Z,94446.3
2018-12-09T09:35:21.509Z,94452.3
2018-12-09T09:36:24.029Z,94451.1
2018-12-09T09:37:26.463Z,94461.5
2018-12-09T09:38:28.893Z,94452.9
2018-12-09T09:39:31.315Z,94457.2
2018-12-09T09:40:33.738Z,94461.9
2018-12-09T09:41:36.194Z,94461.5
2018-12-09T09:42:38.624Z,94457
2018-12-09T09:43:40.781Z,94448.5
2018-12-09T09:44:43.193Z,94451.9
2018-12-09T09:45:45.367Z,94457.9
2018-12-09T09:46:47.827Z,94455.5
2018-12-09T09:47:50.261Z,94459
2018-12-09T09:48:52.681Z,94463.3
2018-12-09T09:49:54.860Z,94460.3
2018-12-09T09:50:57.295Z,94459.3
2018-12-09T09:51:59.718Z,94467.8
2018-12-09T09:53:02.153Z,94458.2
2018-12-09T09:54:04.593Z,94456.3
2018-12-09T09:55:07.036Z,94446.7
2018-12-09T09:56:09.457Z,94450.4
2018-12-09T09:57:11.881Z,94444.4
2018-12-09T09:58:13.777Z,94449.3
2018-12-09T09:59:16.214Z,94460.3
2018-12-09T10:00:18.126Z,94443.6
2018-12-09T10:01:20.596Z,94452.6
2018-12-09T10:02:23.025Z,94454.6
2018-12-09T10:03:27.644Z,94451
2018-12-09T10:04:29.815Z,94454.4
2018-12-09T10:05:32.253Z,94456
2018-12-09T10:06:34.679Z,94464
2018-12-09T10:07:36.828Z,94452.5
2018-12-09T10:08:38.997Z,94450.4
2018-12-09T10:09:41.426Z,94457.6
2018-12-09T10:10:43.591Z,94449.8
2018-12-09T10:11:46.030Z,94444.5
2018-12-09T10:12:48.458Z,94450.4
2018-12-09T10:13:50.610Z,94454.3
2018-12-09T10:14:53.033Z,94447.3
2018-12-09T10:15:55.549Z,94452.5
2018-12-09T10:16:57.699Z,94452.5
2018-12-09T10:18:00.140Z,94453.3
2018-12-09T10:19:04.668Z,94445.4
2018-12-09T10:20:07.107Z,94443.9
2018-12-09T10:21:09.543Z,94464.9
2018-12-09T10:22:12.084Z,94450.2
2018-12-09T10:23:16.593Z,94452.8
2018-12-09T10:24:18.725Z,94445.9
2018-12-09T10:25:21.151Z,94447
2018-12-09T10:26:23.593Z,94461.1
2018-12-09T10:27:25.776Z,94448
2018-12-09T10:28:27.947Z,94439.5
2018-12-09T10:29:29.841Z,94447.2
2018-12-09T10:30:32.279Z,94462.6
2018-12-09T10:31:34.449Z,94458.8
2018-12-09T10:32:36.893Z,94445.2
2018-12-09T10:33:39.335Z,94459.6
2018-12-09T10:34:41.769Z,94451.2
2018-12-09T10:35:43.922Z,94450.5
2018-12-09T10:36:46.366Z,94452.3
2018-12-09T10:37:48.520Z,94441.3
2018-12-09T10:38:50.667Z,94442.1
2018-12-09T10:39:53.091Z,94441.6
2018-12-09T10:40:55.516Z,94444
2018-12-09T10:41:57.966Z,94441
2018-12-09T10:43:00.382Z,94442.3
2018-12-09T10:44:02.285Z,94439.5
2018-12-09T10:45:04.725Z,94450.5
2018-12-09T10:46:06.892Z,94441.2
2018-12-09T10:47:09.335Z,94432.6
2018-12-09T10:48:11.766Z,94437.1
2018-12-09T10:49:13.924Z,94425.7
2018-12-09T10:50:16.360Z,94422.9
2018-12-09T10:51:18.525Z,94429
2018-12-09T10:52:20.967Z,94437
2018-12-09T10:53:22.842Z,94424.4
2018-12-09T10:54:24.982Z,94423.7
2018-12-09T10:55:27.425Z,94420.1
2018-12-09T10:56:29.849Z,94425.7
2018-12-09T10:57:31.999Z,94419.5
2018-12-09T10:58:34.155Z,94416.7
2018-12-09T10:59:36.577Z,94425.2
2018-12-09T11:00:39.012Z,94408.4
2018-12-09T11:01:41.454Z,94414.4
2018-12-09T11:02:43.880Z,94407.4
2018-12-09T11:03:46.298Z,94407.1
2018-12-09T11:04:48.729Z,94408.6
2018-12-09T11:05:51.152Z,94411.1
2018-12-09T11:06:53.032Z,94411.3
2018-12-09T11:07:55.201Z,94414.4
2018-12-09T11:08:57.661Z,94410.2
2018-12-09T11:09:59.811Z,94412
2018-12-09T11:11:02.308Z,94404.8
2018-12-09T11:12:04.750Z,94404.7
2018-12-09T11:13:06.917Z,94407.3
2018-12-09T11:14:08.799Z,94403.5
2018-12-09T11:15:10.969Z,94398.9
2018-12-09T11:16:13.402Z,94399.6
2018-12-09T11:17:15.573Z,94396.6
2018-12-09T11:18:17.718Z,94391.4
2018-12-09T11:19:19.857Z,94384.8
2018-12-09T11:20:21.737Z,94390.3
2018-12-09T11:22:29.163Z,94390
2018-12-09T11:23:31.591Z,94392.3
2018-12-09T11:24:33.744Z,94388.9
2018-12-09T11:25:35.875Z,94390.3
2018-12-09T11:26:38.303Z,94386
2018-12-09T11:27:40.720Z,94373.8
2018-12-09T11:28:43.147Z,94375
2018-12-09T11:29:45.322Z,94377.6
2018-12-09T11:30:47.474Z,94373.9
2018-12-09T11:31:49.603Z,94370.9
2018-12-09T11:32:51.798Z,94372
2018-12-09T11:33:53.943Z,94363.7
2018-12-09T11:34:56.395Z,94369.7
2018-12-09T11:35:58.548Z,94369.5
2018-12-09T11:37:00.779Z,94359.5
2018-12-09T11:38:02.668Z,94360.5
2018-12-09T11:39:04.920Z,94363
2018-12-09T11:40:07.094Z,94365.3
2018-12-09T11:41:09.532Z,94365.3
2018-12-09T11:42:11.689Z,94366.6
2018-12-09T11:43:13.843Z,94369
2018-12-09T11:44:16.281Z,94354.8
2018-12-09T11:45:18.709Z,94360.6
2018-12-09T11:46:20.869Z,94356.9
2018-12-09T11:47:23.305Z,94356.2
2018-12-09T11:48:25.732Z,94346.1
2018-12-09T11:49:27.903Z,94351.3
2018-12-09T11:50:29.793Z,94350.3
2018-12-09T11:51:32.241Z,94343.2
2018-12-09T11:52:34.672Z,94354.6
2018-12-09T11:53:38.121Z,94353.7
2018-12-09T11:54:40.551Z,94345.8
2018-12-09T11:55:42.984Z,94347.9
2018-12-09T11:56:45.413Z,94348.9
2018-12-09T11:57:47.570Z,94344.2
2018-12-09T11:58:49.817Z,94333
2018-12-09T11:59:52.237Z,94346.8
2018-12-09T12:00:54.671Z,94343.5
2018-12-09T12:01:57.115Z,94327.3
2018-12-09T12:02:59.644Z,94346.9
2018-12-09T12:04:02.061Z,94336.4
2018-12-09T12:05:04.210Z,94339.8
2018-12-09T12:06:06.652Z,94347.7
2018-12-09T12:07:09.080Z,94341.4
2018-12-09T12:08:11.521Z,94337.2
2018-12-09T12:09:13.963Z,94339.3
2018-12-09T12:10:16.385Z,94341.9
2018-12-09T12:11:18.534Z,94331.9
2018-12-09T12:12:22.942Z,94342.4
2018-12-09T12:13:25.380Z,94333.7
2018-12-09T12:14:27.832Z,94344.8
2018-12-09T12:15:30.262Z,94336.6
2018-12-09T12:16:32.685Z,94336.6
2018-12-09T12:17:35.140Z,94339.5
2018-12-09T12:18:37.575Z,94346.2
2018-12-09T12:19:39.998Z,94339.4
2018-12-09T12:20:42.430Z,94331.1
2018-12-09T12:21:44.853Z,94338.2
2018-12-09T12:22:47.282Z,94340.4
2018-12-09T12:23:49.801Z,94323.1
2018-12-09T12:24:51.953Z,94337.1
2018-12-09T12:25:54.371Z,94338.2
2018-12-09T12:26:56.809Z,94330.2
2018-12-09T12:27:58.948Z,94333.4
2018-12-09T12:29:01.376Z,94340
2018-12-09T12:30:03.506Z,94340.6
2018-12-09T12:31:05.198Z,94333.3
2018-12-09T12:32:07.639Z,94345.8
2018-12-09T12:33:10.083Z,94336.3
2018-12-09T12:34:11.962Z,94343.2
2018-12-09T12:35:14.131Z,94343.3
2018-12-09T12:36:16.563Z,94339.9
2018-12-09T12:37:18.731Z,94334.9
2018-12-09T12:38:21.164Z,94344.6
2018-12-09T12:39:23.591Z,94333.1
2018-12-09T12:40:26.052Z,94349.4